Terminal Aerodrome Forecast
Issued by NWS Amarillo, TX

Home | Current Version | Previous Version | Text Only | Print | Product List | Glossary On
Versions: 1 2 3 4 5 6 7 8 9 10 11 12 13 14 15 16 17
000
FTUS44 KAMA 262300
TAFAMA
TAF
KAMA 262340Z 2700/2724 09012KT P6SM SCT035 OVC080
     FM271000 12015KT 4SM -SN OVC020
     FM271200 12016KT 1SM -SN OVC008
     FM271800 14015KT 3SM -SN OVC015=

USA.gov is the U.S. government's official web portal to all federal, state and local government web resources and services.